TimeCDT,TemperatureF,Dew PointF,Humidity,Sea Level PressureIn,VisibilityMPH,Wind Direction,Wind SpeedMPH,Gust SpeedMPH,PrecipitationIn,Events,Conditions,WindDirDegrees,DateUTC
12:15 AM,41.0,32.0,70,30.02,10.0,NNW,19.6,26.5,N/A,,Clear,330,2014-04-04 05:15:00
12:35 AM,41.0,32.0,70,30.03,10.0,NNW,17.3,-,N/A,,Clear,340,2014-04-04 05:35:00
12:55 AM,39.2,33.8,81,30.03,10.0,NNW,16.1,20.7,N/A,,Clear,340,2014-04-04 05:55:00
1:15 AM,39.2,33.8,81,30.04,10.0,NNW,15.0,18.4,N/A,,Clear,330,2014-04-04 06:15:00
1:35 AM,39.2,33.8,81,30.05,10.0,NW,12.7,-,N/A,,Clear,320,2014-04-04 06:35:00
1:55 AM,37.4,33.8,87,30.05,10.0,NW,10.4,-,N/A,,Clear,320,2014-04-04 06:55:00
2:15 AM,37.4,33.8,87,30.05,10.0,NW,10.4,-,N/A,,Clear,320,2014-04-04 07:15:00
2:35 AM,37.4,33.8,87,30.05,10.0,NW,9.2,-,N/A,,Clear,310,2014-04-04 07:35:00
2:55 AM,37.4,33.8,87,30.05,10.0,NW,10.4,-,N/A,,Clear,320,2014-04-04 07:55:00
3:15 AM,37.4,33.8,87,30.06,10.0,NW,11.5,-,N/A,,Clear,320,2014-04-04 08:15:00
3:35 AM,37.4,33.8,87,30.06,10.0,WNW,4.6,-,N/A,,Clear,300,2014-04-04 08:35:00
3:55 AM,35.6,32.0,87,30.07,10.0,NW,3.5,-,N/A,,Clear,320,2014-04-04 08:55:00
4:15 AM,35.6,32.0,87,30.07,10.0,WNW,4.6,-,N/A,,Clear,300,2014-04-04 09:15:00
4:35 AM,33.8,32.0,93,30.07,10.0,WNW,4.6,-,N/A,,Clear,290,2014-04-04 09:35:00
4:55 AM,33.8,32.0,93,30.07,10.0,NW,8.1,-,N/A,,Clear,310,2014-04-04 09:55:00
5:15 AM,35.6,32.0,87,30.08,10.0,NW,12.7,16.1,N/A,,Clear,320,2014-04-04 10:15:00
5:35 AM,37.4,32.0,81,30.08,10.0,NNW,13.8,20.7,N/A,,Clear,330,2014-04-04 10:35:00
5:55 AM,37.4,32.0,81,30.09,10.0,NNW,12.7,-,N/A,,Clear,340,2014-04-04 10:55:00
6:17 AM,35.6,32.0,87,30.09,10.0,NW,11.5,20.7,N/A,,Clear,310,2014-04-04 11:17:00
6:50 AM,35.6,32.0,87,30.11,10.0,NW,11.5,20.7,N/A,,Clear,310,2014-04-04 11:50:00
7:50 AM,37.4,30.2,75,30.13,10.0,NW,12.7,20.7,N/A,,Clear,320,2014-04-04 12:50:00
8:50 AM,41.0,30.2,65,30.15,10.0,NW,17.3,24.2,N/A,,Clear,320,2014-04-04 13:50:00
9:55 AM,44.6,30.2,57,30.16,10.0,NNW,19.6,27.6,N/A,,Partly Cloudy,330,2014-04-04 14:55:00
11:50 AM,51.8,28.4,41,30.18,10.0,NNW,12.7,24.2,N/A,,Partly Cloudy,340,2014-04-04 16:50:00
12:50 PM,55.4,28.4,36,30.17,10.0,NNW,18.4,26.5,N/A,,Partly Cloudy,330,2014-04-04 17:50:00
1:50 PM,57.2,26.6,31,30.16,10.0,NNW,11.5,21.9,N/A,,Partly Cloudy,340,2014-04-04 18:50:00
2:50 PM,59.0,24.8,27,30.14,10.0,NNW,13.8,23.0,N/A,,Partly Cloudy,330,2014-04-04 19:50:00
3:50 PM,60.8,24.8,25,30.12,10.0,NNW,11.5,19.6,N/A,,Scattered Clouds,340,2014-04-04 20:50:00
4:50 PM,60.8,24.8,25,30.10,10.0,North,13.8,20.7,N/A,,Scattered Clouds,360,2014-04-04 21:50:00
5:50 PM,60.8,24.8,25,30.09,10.0,NNW,11.5,17.3,N/A,,Scattered Clouds,340,2014-04-04 22:50:00
6:50 PM,59.0,24.8,27,30.09,20.0,NNE,9.2,-,N/A,,Scattered Clouds,20,2014-04-04 23:50:00
7:50 PM,53.6,26.6,35,30.09,10.0,NNE,9.2,-,N/A,,Scattered Clouds,20,2014-04-05 00:50:00
8:50 PM,48.2,26.6,43,30.11,10.0,NE,8.1,-,N/A,,Scattered Clouds,40,2014-04-05 01:50:00
9:15 PM,46.4,28.4,50,30.12,10.0,East,5.8,-,N/A,,Clear,100,2014-04-05 02:15:00
9:35 PM,42.8,28.4,57,30.12,10.0,East,4.6,-,N/A,,Clear,90,2014-04-05 02:35:00
9:55 PM,42.8,28.4,57,30.13,10.0,East,9.2,-,N/A,,Clear,100,2014-04-05 02:55:00
10:15 PM,42.8,28.4,57,30.12,10.0,East,10.4,-,N/A,,Clear,100,2014-04-05 03:15:00
10:35 PM,44.6,28.4,53,30.12,10.0,East,10.4,-,N/A,,Clear,90,2014-04-05 03:35:00
10:55 PM,44.6,26.6,49,30.12,10.0,East,10.4,-,N/A,,Clear,90,2014-04-05 03:55:00
11:15 PM,42.8,26.6,53,30.12,10.0,ESE,6.9,-,N/A,,Clear,120,2014-04-05 04:15:00
11:35 PM,37.4,28.4,70,30.13,10.0,ESE,5.8,-,N/A,,Clear,120,2014-04-05 04:35:00
11:55 PM,37.4,28.4,70,30.13,10.0,Calm,Calm,-,N/A,,Clear,0,2014-04-05 04:55:00